sensor_id;sensor_type;location;lat;lon;timestamp;P1;durP1;ratioP1;P2;durP2;ratioP2
6101;SDS011;3081;50.584;7.032;2022-10-16T00:01:05;3.60;;;1.30;;
6101;SDS011;3081;50.584;7.032;2022-10-16T00:03:33;5.20;;;1.47;;
6101;SDS011;3081;50.584;7.032;2022-10-16T00:06:00;3.50;;;1.20;;
6101;SDS011;3081;50.584;7.032;2022-10-16T00:08:28;3.17;;;1.03;;
6101;SDS011;3081;50.584;7.032;2022-10-16T00:10:58;6.50;;;1.27;;
6101;SDS011;3081;50.584;7.032;2022-10-16T00:13:26;3.93;;;1.03;;
6101;SDS011;3081;50.584;7.032;2022-10-16T00:15:54;3.27;;;1.13;;
6101;SDS011;3081;50.584;7.032;2022-10-16T00:18:23;3.53;;;1.20;;
6101;SDS011;3081;50.584;7.032;2022-10-16T00:20:51;3.30;;;1.07;;
6101;SDS011;3081;50.584;7.032;2022-10-16T00:23:18;3.33;;;1.13;;
6101;SDS011;3081;50.584;7.032;2022-10-16T00:25:53;4.93;;;1.60;;
6101;SDS011;3081;50.584;7.032;2022-10-16T00:28:22;3.83;;;1.20;;
6101;SDS011;3081;50.584;7.032;2022-10-16T00:30:49;6.03;;;1.80;;
6101;SDS011;3081;50.584;7.032;2022-10-16T00:33:15;4.17;;;1.20;;
6101;SDS011;3081;50.584;7.032;2022-10-16T00:35:44;3.90;;;1.17;;
6101;SDS011;3081;50.584;7.032;2022-10-16T00:38:11;3.43;;;1.27;;
6101;SDS011;3081;50.584;7.032;2022-10-16T00:40:38;4.50;;;1.33;;
6101;SDS011;3081;50.584;7.032;2022-10-16T00:43:09;4.40;;;1.37;;
6101;SDS011;3081;50.584;7.032;2022-10-16T00:45:39;4.03;;;1.30;;
6101;SDS011;3081;50.584;7.032;2022-10-16T00:48:07;3.33;;;1.27;;
6101;SDS011;3081;50.584;7.032;2022-10-16T00:50:38;3.50;;;1.10;;
6101;SDS011;3081;50.584;7.032;2022-10-16T00:53:09;3.37;;;1.23;;
6101;SDS011;3081;50.584;7.032;2022-10-16T00:55:38;3.57;;;1.33;;
6101;SDS011;3081;50.584;7.032;2022-10-16T00:58:05;3.20;;;1.03;;
6101;SDS011;3081;50.584;7.032;2022-10-16T01:00:32;3.40;;;1.17;;
6101;SDS011;3081;50.584;7.032;2022-10-16T01:02:59;3.90;;;1.27;;
6101;SDS011;3081;50.584;7.032;2022-10-16T01:05:30;3.80;;;1.50;;
6101;SDS011;3081;50.584;7.032;2022-10-16T01:08:06;3.37;;;1.27;;
6101;SDS011;3081;50.584;7.032;2022-10-16T01:10:40;5.30;;;1.70;;
6101;SDS011;3081;50.584;7.032;2022-10-16T01:13:12;3.87;;;1.57;;
6101;SDS011;3081;50.584;7.032;2022-10-16T01:15:47;4.00;;;1.50;;
6101;SDS011;3081;50.584;7.032;2022-10-16T01:18:28;4.33;;;1.63;;
6101;SDS011;3081;50.584;7.032;2022-10-16T01:21:02;4.07;;;1.60;;
6101;SDS011;3081;50.584;7.032;2022-10-16T01:23:38;3.50;;;1.40;;
6101;SDS011;3081;50.584;7.032;2022-10-16T01:26:16;4.27;;;1.63;;
6101;SDS011;3081;50.584;7.032;2022-10-16T01:29:00;3.83;;;1.50;;
6101;SDS011;3081;50.584;7.032;2022-10-16T01:31:33;3.53;;;1.30;;
6101;SDS011;3081;50.584;7.032;2022-10-16T01:34:03;4.13;;;1.60;;
6101;SDS011;3081;50.584;7.032;2022-10-16T01:36:35;5.37;;;1.53;;
6101;SDS011;3081;50.584;7.032;2022-10-16T01:39:06;7.80;;;1.67;;
6101;SDS011;3081;50.584;7.032;2022-10-16T01:41:37;3.93;;;1.47;;
6101;SDS011;3081;50.584;7.032;2022-10-16T01:44:09;3.80;;;1.30;;
6101;SDS011;3081;50.584;7.032;2022-10-16T01:46:41;4.00;;;1.40;;
6101;SDS011;3081;50.584;7.032;2022-10-16T01:49:11;3.73;;;1.53;;
6101;SDS011;3081;50.584;7.032;2022-10-16T01:51:39;3.30;;;1.30;;
6101;SDS011;3081;50.584;7.032;2022-10-16T01:54:08;4.30;;;1.40;;
6101;SDS011;3081;50.584;7.032;2022-10-16T01:56:35;3.57;;;1.27;;
6101;SDS011;3081;50.584;7.032;2022-10-16T01:59:05;5.43;;;1.47;;
6101;SDS011;3081;50.584;7.032;2022-10-16T02:01:38;4.30;;;1.50;;
6101;SDS011;3081;50.584;7.032;2022-10-16T02:04:10;3.97;;;1.47;;
6101;SDS011;3081;50.584;7.032;2022-10-16T02:06:41;3.77;;;1.50;;
6101;SDS011;3081;50.584;7.032;2022-10-16T02:09:08;3.70;;;1.33;;
6101;SDS011;3081;50.584;7.032;2022-10-16T02:11:35;5.87;;;1.50;;
6101;SDS011;3081;50.584;7.032;2022-10-16T02:14:02;3.33;;;1.20;;
6101;SDS011;3081;50.584;7.032;2022-10-16T02:16:34;3.70;;;1.50;;
6101;SDS011;3081;50.584;7.032;2022-10-16T02:19:04;3.47;;;1.23;;
6101;SDS011;3081;50.584;7.032;2022-10-16T02:21:33;3.43;;;1.20;;
6101;SDS011;3081;50.584;7.032;2022-10-16T02:24:06;4.47;;;1.40;;
6101;SDS011;3081;50.584;7.032;2022-10-16T02:26:37;8.87;;;1.50;;
6101;SDS011;3081;50.584;7.032;2022-10-16T02:29:10;3.50;;;1.30;;
6101;SDS011;3081;50.584;7.032;2022-10-16T02:31:43;3.10;;;1.13;;
6101;SDS011;3081;50.584;7.032;2022-10-16T02:34:16;4.10;;;1.37;;
6101;SDS011;3081;50.584;7.032;2022-10-16T02:36:44;3.23;;;1.10;;
6101;SDS011;3081;50.584;7.032;2022-10-16T02:39:14;3.20;;;1.20;;
6101;SDS011;3081;50.584;7.032;2022-10-16T02:41:42;3.93;;;1.30;;
6101;SDS011;3081;50.584;7.032;2022-10-16T02:44:09;6.30;;;1.17;;
6101;SDS011;3081;50.584;7.032;2022-10-16T02:46:36;3.30;;;1.13;;
6101;SDS011;3081;50.584;7.032;2022-10-16T02:49:03;4.30;;;1.10;;
6101;SDS011;3081;50.584;7.032;2022-10-16T02:51:31;3.90;;;1.50;;
6101;SDS011;3081;50.584;7.032;2022-10-16T02:53:58;3.83;;;1.30;;
6101;SDS011;3081;50.584;7.032;2022-10-16T02:56:25;4.00;;;1.40;;
6101;SDS011;3081;50.584;7.032;2022-10-16T02:58:52;3.33;;;1.10;;
6101;SDS011;3081;50.584;7.032;2022-10-16T03:01:19;3.47;;;1.30;;
6101;SDS011;3081;50.584;7.032;2022-10-16T03:03:45;3.10;;;0.90;;
6101;SDS011;3081;50.584;7.032;2022-10-16T03:06:12;4.80;;;1.40;;
6101;SDS011;3081;50.584;7.032;2022-10-16T03:08:41;3.97;;;1.50;;
6101;SDS011;3081;50.584;7.032;2022-10-16T03:11:08;6.63;;;1.43;;
6101;SDS011;3081;50.584;7.032;2022-10-16T03:13:35;3.63;;;1.33;;
6101;SDS011;3081;50.584;7.032;2022-10-16T03:16:02;4.70;;;1.30;;
6101;SDS011;3081;50.584;7.032;2022-10-16T03:18:29;10.70;;;1.40;;
6101;SDS011;3081;50.584;7.032;2022-10-16T03:20:56;3.60;;;1.20;;
6101;SDS011;3081;50.584;7.032;2022-10-16T03:23:22;5.23;;;1.40;;
6101;SDS011;3081;50.584;7.032;2022-10-16T03:25:51;4.70;;;1.00;;
6101;SDS011;3081;50.584;7.032;2022-10-16T03:28:18;4.10;;;0.90;;
6101;SDS011;3081;50.584;7.032;2022-10-16T03:30:45;3.73;;;1.27;;
6101;SDS011;3081;50.584;7.032;2022-10-16T03:33:12;4.30;;;1.30;;
6101;SDS011;3081;50.584;7.032;2022-10-16T03:35:39;4.07;;;1.50;;
6101;SDS011;3081;50.584;7.032;2022-10-16T03:38:06;5.20;;;1.23;;
6101;SDS011;3081;50.584;7.032;2022-10-16T03:40:33;4.43;;;1.23;;
6101;SDS011;3081;50.584;7.032;2022-10-16T03:43:01;4.13;;;1.27;;
6101;SDS011;3081;50.584;7.032;2022-10-16T03:45:28;7.20;;;1.80;;
6101;SDS011;3081;50.584;7.032;2022-10-16T03:47:55;5.17;;;1.20;;
6101;SDS011;3081;50.584;7.032;2022-10-16T03:50:22;4.50;;;1.10;;
6101;SDS011;3081;50.584;7.032;2022-10-16T03:52:49;3.30;;;1.10;;
6101;SDS011;3081;50.584;7.032;2022-10-16T03:55:16;4.20;;;1.20;;
6101;SDS011;3081;50.584;7.032;2022-10-16T03:57:43;4.80;;;1.30;;
6101;SDS011;3081;50.584;7.032;2022-10-16T04:00:12;7.00;;;1.40;;
6101;SDS011;3081;50.584;7.032;2022-10-16T04:02:39;3.83;;;1.53;;
6101;SDS011;3081;50.584;7.032;2022-10-16T04:05:06;3.73;;;1.37;;
6101;SDS011;3081;50.584;7.032;2022-10-16T04:07:34;3.90;;;1.40;;
6101;SDS011;3081;50.584;7.032;2022-10-16T04:10:00;4.53;;;1.17;;
6101;SDS011;3081;50.584;7.032;2022-10-16T04:12:28;3.73;;;1.37;;
6101;SDS011;3081;50.584;7.032;2022-10-16T04:14:54;4.17;;;1.47;;
6101;SDS011;3081;50.584;7.032;2022-10-16T04:17:23;3.70;;;1.50;;
6101;SDS011;3081;50.584;7.032;2022-10-16T04:19:50;5.70;;;1.60;;
6101;SDS011;3081;50.584;7.032;2022-10-16T04:22:16;3.70;;;1.30;;
6101;SDS011;3081;50.584;7.032;2022-10-16T04:24:43;5.00;;;1.40;;
6101;SDS011;3081;50.584;7.032;2022-10-16T04:27:10;4.03;;;1.50;;
6101;SDS011;3081;50.584;7.032;2022-10-16T04:29:37;7.43;;;1.20;;
6101;SDS011;3081;50.584;7.032;2022-10-16T04:32:04;3.50;;;1.17;;
6101;SDS011;3081;50.584;7.032;2022-10-16T04:34:32;4.03;;;1.40;;
6101;SDS011;3081;50.584;7.032;2022-10-16T04:36:59;4.00;;;1.40;;
6101;SDS011;3081;50.584;7.032;2022-10-16T04:39:26;3.63;;;1.33;;
6101;SDS011;3081;50.584;7.032;2022-10-16T04:41:53;4.30;;;1.40;;
6101;SDS011;3081;50.584;7.032;2022-10-16T04:44:20;4.93;;;1.53;;
6101;SDS011;3081;50.584;7.032;2022-10-16T04:46:47;3.80;;;1.63;;
6101;SDS011;3081;50.584;7.032;2022-10-16T04:49:16;4.30;;;1.50;;
6101;SDS011;3081;50.584;7.032;2022-10-16T04:51:44;3.90;;;1.70;;
6101;SDS011;3081;50.584;7.032;2022-10-16T04:54:11;4.23;;;1.80;;
6101;SDS011;3081;50.584;7.032;2022-10-16T04:56:38;5.90;;;2.10;;
6101;SDS011;3081;50.584;7.032;2022-10-16T04:59:11;4.53;;;2.03;;
6101;SDS011;3081;50.584;7.032;2022-10-16T05:01:38;4.07;;;1.70;;
6101;SDS011;3081;50.584;7.032;2022-10-16T05:04:05;3.90;;;1.87;;
6101;SDS011;3081;50.584;7.032;2022-10-16T05:06:32;4.00;;;1.50;;
6101;SDS011;3081;50.584;7.032;2022-10-16T05:09:01;4.50;;;2.00;;
6101;SDS011;3081;50.584;7.032;2022-10-16T05:11:28;4.40;;;1.80;;
6101;SDS011;3081;50.584;7.032;2022-10-16T05:13:56;6.70;;;2.23;;
6101;SDS011;3081;50.584;7.032;2022-10-16T05:16:23;3.60;;;1.70;;
6101;SDS011;3081;50.584;7.032;2022-10-16T05:18:50;3.73;;;1.83;;
6101;SDS011;3081;50.584;7.032;2022-10-16T05:21:18;4.07;;;1.90;;
6101;SDS011;3081;50.584;7.032;2022-10-16T05:23:45;5.30;;;2.20;;
6101;SDS011;3081;50.584;7.032;2022-10-16T05:26:13;3.90;;;1.80;;
6101;SDS011;3081;50.584;7.032;2022-10-16T05:28:40;5.20;;;2.00;;
6101;SDS011;3081;50.584;7.032;2022-10-16T05:31:07;4.97;;;2.03;;
6101;SDS011;3081;50.584;7.032;2022-10-16T05:33:35;8.47;;;2.50;;
6101;SDS011;3081;50.584;7.032;2022-10-16T05:36:02;5.57;;;1.80;;
6101;SDS011;3081;50.584;7.032;2022-10-16T05:38:31;3.73;;;1.43;;
6101;SDS011;3081;50.584;7.032;2022-10-16T05:40:58;3.20;;;1.30;;
6101;SDS011;3081;50.584;7.032;2022-10-16T05:43:26;4.17;;;1.50;;
6101;SDS011;3081;50.584;7.032;2022-10-16T05:45:54;3.20;;;1.47;;
6101;SDS011;3081;50.584;7.032;2022-10-16T05:48:21;3.60;;;1.40;;
6101;SDS011;3081;50.584;7.032;2022-10-16T05:50:48;3.20;;;1.23;;
6101;SDS011;3081;50.584;7.032;2022-10-16T05:53:23;3.10;;;1.07;;
6101;SDS011;3081;50.584;7.032;2022-10-16T05:55:53;3.20;;;1.10;;
6101;SDS011;3081;50.584;7.032;2022-10-16T05:58:21;3.40;;;1.30;;
6101;SDS011;3081;50.584;7.032;2022-10-16T06:00:56;3.20;;;1.10;;
6101;SDS011;3081;50.584;7.032;2022-10-16T06:03:24;3.33;;;1.20;;
6101;SDS011;3081;50.584;7.032;2022-10-16T06:05:51;3.60;;;1.30;;
6101;SDS011;3081;50.584;7.032;2022-10-16T06:08:19;3.10;;;1.00;;
6101;SDS011;3081;50.584;7.032;2022-10-16T06:10:47;3.00;;;0.90;;
6101;SDS011;3081;50.584;7.032;2022-10-16T06:13:14;4.73;;;0.97;;
6101;SDS011;3081;50.584;7.032;2022-10-16T06:15:42;4.40;;;1.03;;
6101;SDS011;3081;50.584;7.032;2022-10-16T06:18:10;6.10;;;1.20;;
6101;SDS011;3081;50.584;7.032;2022-10-16T06:20:37;3.37;;;1.03;;
6101;SDS011;3081;50.584;7.032;2022-10-16T06:23:04;4.00;;;1.05;;
6101;SDS011;3081;50.584;7.032;2022-10-16T06:25:31;3.77;;;1.20;;
6101;SDS011;3081;50.584;7.032;2022-10-16T06:27:58;7.43;;;1.20;;
6101;SDS011;3081;50.584;7.032;2022-10-16T06:30:26;3.87;;;1.07;;
6101;SDS011;3081;50.584;7.032;2022-10-16T06:32:52;3.67;;;1.10;;
6101;SDS011;3081;50.584;7.032;2022-10-16T06:35:21;4.07;;;1.10;;
6101;SDS011;3081;50.584;7.032;2022-10-16T06:37:48;7.90;;;1.43;;
6101;SDS011;3081;50.584;7.032;2022-10-16T06:40:15;3.30;;;1.00;;
6101;SDS011;3081;50.584;7.032;2022-10-16T06:42:42;4.23;;;1.40;;
6101;SDS011;3081;50.584;7.032;2022-10-16T06:45:10;4.03;;;1.23;;
6101;SDS011;3081;50.584;7.032;2022-10-16T06:47:37;3.43;;;1.10;;
6101;SDS011;3081;50.584;7.032;2022-10-16T06:50:05;3.70;;;1.20;;
6101;SDS011;3081;50.584;7.032;2022-10-16T06:52:34;3.47;;;1.23;;
6101;SDS011;3081;50.584;7.032;2022-10-16T06:55:01;4.40;;;1.10;;
6101;SDS011;3081;50.584;7.032;2022-10-16T06:57:28;6.10;;;1.30;;
6101;SDS011;3081;50.584;7.032;2022-10-16T06:59:55;3.77;;;1.10;;
6101;SDS011;3081;50.584;7.032;2022-10-16T07:02:22;4.07;;;1.20;;
6101;SDS011;3081;50.584;7.032;2022-10-16T07:04:49;5.17;;;1.43;;
6101;SDS011;3081;50.584;7.032;2022-10-16T07:07:16;6.53;;;1.10;;
6101;SDS011;3081;50.584;7.032;2022-10-16T07:09:44;4.50;;;1.30;;
6101;SDS011;3081;50.584;7.032;2022-10-16T07:12:11;4.60;;;1.23;;
6101;SDS011;3081;50.584;7.032;2022-10-16T07:14:38;3.83;;;1.00;;
6101;SDS011;3081;50.584;7.032;2022-10-16T07:17:05;5.60;;;1.10;;
6101;SDS011;3081;50.584;7.032;2022-10-16T07:19:32;3.87;;;1.07;;
6101;SDS011;3081;50.584;7.032;2022-10-16T07:21:59;4.17;;;1.40;;
6101;SDS011;3081;50.584;7.032;2022-10-16T07:24:26;5.80;;;1.40;;
6101;SDS011;3081;50.584;7.032;2022-10-16T07:26:54;4.13;;;1.20;;
6101;SDS011;3081;50.584;7.032;2022-10-16T07:29:21;3.70;;;1.00;;
6101;SDS011;3081;50.584;7.032;2022-10-16T07:31:48;5.03;;;1.10;;
6101;SDS011;3081;50.584;7.032;2022-10-16T07:34:16;8.43;;;1.10;;
6101;SDS011;3081;50.584;7.032;2022-10-16T07:36:46;4.10;;;1.10;;
6101;SDS011;3081;50.584;7.032;2022-10-16T07:39:14;3.90;;;1.13;;
6101;SDS011;3081;50.584;7.032;2022-10-16T07:41:41;4.43;;;1.20;;
6101;SDS011;3081;50.584;7.032;2022-10-16T07:44:09;6.60;;;0.90;;
6101;SDS011;3081;50.584;7.032;2022-10-16T07:46:36;4.43;;;0.90;;
6101;SDS011;3081;50.584;7.032;2022-10-16T07:49:03;6.50;;;0.90;;
6101;SDS011;3081;50.584;7.032;2022-10-16T07:51:30;4.00;;;0.90;;
6101;SDS011;3081;50.584;7.032;2022-10-16T07:53:57;4.87;;;1.00;;
6101;SDS011;3081;50.584;7.032;2022-10-16T07:56:24;4.20;;;1.13;;
6101;SDS011;3081;50.584;7.032;2022-10-16T07:58:51;4.33;;;1.00;;
6101;SDS011;3081;50.584;7.032;2022-10-16T08:01:19;5.53;;;0.83;;
6101;SDS011;3081;50.584;7.032;2022-10-16T08:03:48;4.40;;;0.93;;
6101;SDS011;3081;50.584;7.032;2022-10-16T08:06:16;4.00;;;0.97;;
6101;SDS011;3081;50.584;7.032;2022-10-16T08:08:43;5.50;;;0.80;;
6101;SDS011;3081;50.584;7.032;2022-10-16T08:11:10;4.30;;;0.90;;
6101;SDS011;3081;50.584;7.032;2022-10-16T08:13:37;4.30;;;0.90;;
6101;SDS011;3081;50.584;7.032;2022-10-16T08:16:04;4.13;;;0.80;;
6101;SDS011;3081;50.584;7.032;2022-10-16T08:18:34;4.33;;;0.90;;
6101;SDS011;3081;50.584;7.032;2022-10-16T08:21:02;4.00;;;0.83;;
6101;SDS011;3081;50.584;7.032;2022-10-16T08:23:30;8.10;;;0.97;;
6101;SDS011;3081;50.584;7.032;2022-10-16T08:26:01;4.87;;;1.40;;
6101;SDS011;3081;50.584;7.032;2022-10-16T08:28:30;5.90;;;1.00;;
6101;SDS011;3081;50.584;7.032;2022-10-16T08:31:04;4.67;;;0.80;;
6101;SDS011;3081;50.584;7.032;2022-10-16T08:33:32;4.50;;;0.90;;
6101;SDS011;3081;50.584;7.032;2022-10-16T08:36:01;4.50;;;0.87;;
6101;SDS011;3081;50.584;7.032;2022-10-16T08:38:29;4.53;;;0.80;;
6101;SDS011;3081;50.584;7.032;2022-10-16T08:40:57;4.30;;;0.70;;
6101;SDS011;3081;50.584;7.032;2022-10-16T08:43:39;4.70;;;0.80;;
6101;SDS011;3081;50.584;7.032;2022-10-16T08:46:31;5.47;;;1.10;;
6101;SDS011;3081;50.584;7.032;2022-10-16T08:49:07;7.23;;;1.27;;
6101;SDS011;3081;50.584;7.032;2022-10-16T08:51:39;5.10;;;0.90;;
6101;SDS011;3081;50.584;7.032;2022-10-16T08:54:11;5.93;;;0.90;;
6101;SDS011;3081;50.584;7.032;2022-10-16T08:56:49;6.27;;;1.20;;
6101;SDS011;3081;50.584;7.032;2022-10-16T08:59:15;6.57;;;1.10;;
6101;SDS011;3081;50.584;7.032;2022-10-16T09:01:44;6.67;;;1.00;;
6101;SDS011;3081;50.584;7.032;2022-10-16T09:04:37;7.17;;;1.00;;
6101;SDS011;3081;50.584;7.032;2022-10-16T09:07:26;6.10;;;0.70;;
6101;SDS011;3081;50.584;7.032;2022-10-16T09:10:11;5.93;;;0.93;;
6101;SDS011;3081;50.584;7.032;2022-10-16T09:12:52;7.37;;;1.20;;
6101;SDS011;3081;50.584;7.032;2022-10-16T09:15:27;6.80;;;1.00;;
6101;SDS011;3081;50.584;7.032;2022-10-16T09:17:59;6.90;;;1.20;;
6101;SDS011;3081;50.584;7.032;2022-10-16T09:20:34;7.17;;;1.30;;
6101;SDS011;3081;50.584;7.032;2022-10-16T09:23:15;6.80;;;0.83;;
6101;SDS011;3081;50.584;7.032;2022-10-16T09:25:45;7.67;;;1.10;;
6101;SDS011;3081;50.584;7.032;2022-10-16T09:28:14;8.00;;;1.07;;
6101;SDS011;3081;50.584;7.032;2022-10-16T09:30:41;7.20;;;0.80;;
6101;SDS011;3081;50.584;7.032;2022-10-16T09:33:09;10.47;;;0.80;;
6101;SDS011;3081;50.584;7.032;2022-10-16T09:35:37;7.93;;;0.90;;
6101;SDS011;3081;50.584;7.032;2022-10-16T09:38:05;8.20;;;1.00;;
6101;SDS011;3081;50.584;7.032;2022-10-16T09:40:35;7.80;;;1.00;;
6101;SDS011;3081;50.584;7.032;2022-10-16T09:43:19;8.07;;;0.97;;
6101;SDS011;3081;50.584;7.032;2022-10-16T09:45:55;7.53;;;0.90;;
6101;SDS011;3081;50.584;7.032;2022-10-16T09:48:25;7.50;;;0.93;;
6101;SDS011;3081;50.584;7.032;2022-10-16T09:50:58;7.60;;;0.90;;
6101;SDS011;3081;50.584;7.032;2022-10-16T09:53:26;8.47;;;0.90;;
6101;SDS011;3081;50.584;7.032;2022-10-16T09:56:09;10.83;;;1.00;;
6101;SDS011;3081;50.584;7.032;2022-10-16T09:58:41;8.17;;;0.70;;
6101;SDS011;3081;50.584;7.032;2022-10-16T10:01:11;7.70;;;0.80;;
6101;SDS011;3081;50.584;7.032;2022-10-16T10:03:40;8.33;;;0.80;;
6101;SDS011;3081;50.584;7.032;2022-10-16T10:06:22;8.13;;;0.70;;
6101;SDS011;3081;50.584;7.032;2022-10-16T10:08:55;7.37;;;0.80;;
6101;SDS011;3081;50.584;7.032;2022-10-16T10:11:38;7.40;;;0.63;;
6101;SDS011;3081;50.584;7.032;2022-10-16T10:14:23;7.43;;;0.80;;
6101;SDS011;3081;50.584;7.032;2022-10-16T10:17:01;8.90;;;0.70;;
6101;SDS011;3081;50.584;7.032;2022-10-16T10:19:37;7.73;;;0.80;;
6101;SDS011;3081;50.584;7.032;2022-10-16T10:22:13;7.57;;;0.60;;
6101;SDS011;3081;50.584;7.032;2022-10-16T10:24:45;8.07;;;0.60;;
6101;SDS011;3081;50.584;7.032;2022-10-16T10:27:22;7.87;;;0.77;;
6101;SDS011;3081;50.584;7.032;2022-10-16T10:29:56;6.77;;;0.50;;
6101;SDS011;3081;50.584;7.032;2022-10-16T10:32:30;8.63;;;0.60;;
6101;SDS011;3081;50.584;7.032;2022-10-16T10:35:11;8.80;;;1.27;;
6101;SDS011;3081;50.584;7.032;2022-10-16T10:37:58;7.13;;;0.90;;
6101;SDS011;3081;50.584;7.032;2022-10-16T10:40:39;7.10;;;0.80;;
6101;SDS011;3081;50.584;7.032;2022-10-16T10:43:19;7.07;;;0.70;;
6101;SDS011;3081;50.584;7.032;2022-10-16T10:45:58;8.43;;;0.90;;
6101;SDS011;3081;50.584;7.032;2022-10-16T10:48:42;7.73;;;0.80;;
6101;SDS011;3081;50.584;7.032;2022-10-16T10:51:21;6.60;;;0.60;;
6101;SDS011;3081;50.584;7.032;2022-10-16T10:53:59;7.30;;;0.80;;
6101;SDS011;3081;50.584;7.032;2022-10-16T10:56:40;7.30;;;0.60;;
6101;SDS011;3081;50.584;7.032;2022-10-16T10:59:24;7.20;;;0.67;;
6101;SDS011;3081;50.584;7.032;2022-10-16T11:02:10;8.40;;;1.10;;
6101;SDS011;3081;50.584;7.032;2022-10-16T11:05:00;8.23;;;1.13;;
6101;SDS011;3081;50.584;7.032;2022-10-16T11:07:51;8.07;;;0.90;;
6101;SDS011;3081;50.584;7.032;2022-10-16T11:10:24;7.97;;;0.97;;
6101;SDS011;3081;50.584;7.032;2022-10-16T11:12:55;7.30;;;0.70;;
6101;SDS011;3081;50.584;7.032;2022-10-16T11:15:29;6.90;;;0.70;;
6101;SDS011;3081;50.584;7.032;2022-10-16T11:18:00;7.20;;;0.80;;
6101;SDS011;3081;50.584;7.032;2022-10-16T11:20:32;8.50;;;0.70;;
6101;SDS011;3081;50.584;7.032;2022-10-16T11:23:05;7.23;;;0.90;;
6101;SDS011;3081;50.584;7.032;2022-10-16T11:25:38;7.73;;;0.97;;
6101;SDS011;3081;50.584;7.032;2022-10-16T11:28:07;9.67;;;1.93;;
6101;SDS011;3081;50.584;7.032;2022-10-16T11:30:40;8.50;;;1.50;;
6101;SDS011;3081;50.584;7.032;2022-10-16T11:33:18;15.13;;;6.87;;
6101;SDS011;3081;50.584;7.032;2022-10-16T11:35:53;8.70;;;1.20;;
6101;SDS011;3081;50.584;7.032;2022-10-16T11:38:26;11.77;;;2.20;;
6101;SDS011;3081;50.584;7.032;2022-10-16T11:40:58;21.30;;;16.97;;
6101;SDS011;3081;50.584;7.032;2022-10-16T11:43:31;49.00;;;44.67;;
6101;SDS011;3081;50.584;7.032;2022-10-16T11:46:04;24.23;;;12.70;;
6101;SDS011;3081;50.584;7.032;2022-10-16T11:48:39;12.90;;;3.00;;
6101;SDS011;3081;50.584;7.032;2022-10-16T11:51:14;11.37;;;2.83;;
6101;SDS011;3081;50.584;7.032;2022-10-16T11:53:49;10.80;;;2.20;;
6101;SDS011;3081;50.584;7.032;2022-10-16T11:56:21;11.23;;;2.70;;
6101;SDS011;3081;50.584;7.032;2022-10-16T11:58:51;8.83;;;1.27;;
6101;SDS011;3081;50.584;7.032;2022-10-16T12:01:24;10.80;;;2.07;;
6101;SDS011;3081;50.584;7.032;2022-10-16T12:03:59;10.90;;;1.70;;
6101;SDS011;3081;50.584;7.032;2022-10-16T12:06:34;12.27;;;1.97;;
6101;SDS011;3081;50.584;7.032;2022-10-16T12:09:03;17.23;;;3.97;;
6101;SDS011;3081;50.584;7.032;2022-10-16T12:11:32;10.17;;;1.40;;
6101;SDS011;3081;50.584;7.032;2022-10-16T12:14:07;12.10;;;2.63;;
6101;SDS011;3081;50.584;7.032;2022-10-16T12:16:53;32.17;;;29.13;;
6101;SDS011;3081;50.584;7.032;2022-10-16T12:19:22;14.93;;;8.30;;
6101;SDS011;3081;50.584;7.032;2022-10-16T12:21:52;27.30;;;24.73;;
6101;SDS011;3081;50.584;7.032;2022-10-16T12:24:23;21.17;;;14.03;;
6101;SDS011;3081;50.584;7.032;2022-10-16T12:26:57;14.30;;;2.70;;
6101;SDS011;3081;50.584;7.032;2022-10-16T12:29:28;9.00;;;0.90;;
6101;SDS011;3081;50.584;7.032;2022-10-16T12:32:01;9.13;;;1.33;;
6101;SDS011;3081;50.584;7.032;2022-10-16T12:34:32;10.27;;;1.23;;
6101;SDS011;3081;50.584;7.032;2022-10-16T12:37:13;8.87;;;1.00;;
6101;SDS011;3081;50.584;7.032;2022-10-16T12:39:45;8.90;;;1.07;;
6101;SDS011;3081;50.584;7.032;2022-10-16T12:42:21;10.43;;;2.20;;
6101;SDS011;3081;50.584;7.032;2022-10-16T12:44:50;13.07;;;2.27;;
6101;SDS011;3081;50.584;7.032;2022-10-16T12:47:22;15.50;;;2.70;;
6101;SDS011;3081;50.584;7.032;2022-10-16T12:50:00;10.40;;;1.47;;
6101;SDS011;3081;50.584;7.032;2022-10-16T12:52:28;10.03;;;1.60;;
6101;SDS011;3081;50.584;7.032;2022-10-16T12:55:02;8.97;;;1.17;;
6101;SDS011;3081;50.584;7.032;2022-10-16T12:57:34;9.20;;;1.27;;
6101;SDS011;3081;50.584;7.032;2022-10-16T13:00:12;11.97;;;1.07;;
6101;SDS011;3081;50.584;7.032;2022-10-16T13:02:52;11.63;;;1.67;;
6101;SDS011;3081;50.584;7.032;2022-10-16T13:05:45;14.23;;;2.50;;
6101;SDS011;3081;50.584;7.032;2022-10-16T13:08:29;13.10;;;2.03;;
6101;SDS011;3081;50.584;7.032;2022-10-16T13:11:12;10.07;;;1.03;;
6101;SDS011;3081;50.584;7.032;2022-10-16T13:14:09;12.80;;;1.90;;
6101;SDS011;3081;50.584;7.032;2022-10-16T13:16:49;11.43;;;1.47;;
6101;SDS011;3081;50.584;7.032;2022-10-16T13:19:30;10.43;;;1.43;;
6101;SDS011;3081;50.584;7.032;2022-10-16T13:22:03;14.13;;;2.30;;
6101;SDS011;3081;50.584;7.032;2022-10-16T13:24:40;11.87;;;1.70;;
6101;SDS011;3081;50.584;7.032;2022-10-16T13:27:18;12.37;;;1.60;;
6101;SDS011;3081;50.584;7.032;2022-10-16T13:29:53;13.07;;;2.17;;
6101;SDS011;3081;50.584;7.032;2022-10-16T13:32:27;14.47;;;2.00;;
6101;SDS011;3081;50.584;7.032;2022-10-16T13:34:56;12.57;;;2.13;;
6101;SDS011;3081;50.584;7.032;2022-10-16T13:37:23;8.57;;;1.10;;
6101;SDS011;3081;50.584;7.032;2022-10-16T13:40:01;9.47;;;1.10;;
6101;SDS011;3081;50.584;7.032;2022-10-16T13:42:33;10.93;;;1.60;;
6101;SDS011;3081;50.584;7.032;2022-10-16T13:45:00;12.63;;;1.70;;
6101;SDS011;3081;50.584;7.032;2022-10-16T13:47:28;10.40;;;1.43;;
6101;SDS011;3081;50.584;7.032;2022-10-16T13:50:00;11.07;;;1.63;;
6101;SDS011;3081;50.584;7.032;2022-10-16T13:52:28;11.20;;;1.57;;
6101;SDS011;3081;50.584;7.032;2022-10-16T13:54:55;13.80;;;2.17;;
6101;SDS011;3081;50.584;7.032;2022-10-16T13:57:24;14.07;;;2.10;;
6101;SDS011;3081;50.584;7.032;2022-10-16T13:59:51;10.50;;;1.20;;
6101;SDS011;3081;50.584;7.032;2022-10-16T14:02:20;14.47;;;2.17;;
6101;SDS011;3081;50.584;7.032;2022-10-16T14:04:50;9.50;;;1.10;;
6101;SDS011;3081;50.584;7.032;2022-10-16T14:07:21;12.50;;;1.90;;
6101;SDS011;3081;50.584;7.032;2022-10-16T14:09:51;14.27;;;1.97;;
6101;SDS011;3081;50.584;7.032;2022-10-16T14:12:19;11.00;;;1.43;;
6101;SDS011;3081;50.584;7.032;2022-10-16T14:14:48;17.10;;;2.63;;
6101;SDS011;3081;50.584;7.032;2022-10-16T14:17:18;11.73;;;1.63;;
6101;SDS011;3081;50.584;7.032;2022-10-16T14:19:48;10.23;;;1.33;;
6101;SDS011;3081;50.584;7.032;2022-10-16T14:22:29;12.90;;;1.87;;
6101;SDS011;3081;50.584;7.032;2022-10-16T14:24:58;15.80;;;3.03;;
6101;SDS011;3081;50.584;7.032;2022-10-16T14:27:28;16.53;;;2.90;;
6101;SDS011;3081;50.584;7.032;2022-10-16T14:30:09;10.33;;;1.53;;
6101;SDS011;3081;50.584;7.032;2022-10-16T14:32:41;11.10;;;1.80;;
6101;SDS011;3081;50.584;7.032;2022-10-16T14:35:25;9.93;;;1.50;;
6101;SDS011;3081;50.584;7.032;2022-10-16T14:37:56;8.70;;;1.10;;
6101;SDS011;3081;50.584;7.032;2022-10-16T14:40:24;9.33;;;1.50;;
6101;SDS011;3081;50.584;7.032;2022-10-16T14:42:52;8.50;;;1.23;;
6101;SDS011;3081;50.584;7.032;2022-10-16T14:45:20;9.30;;;1.60;;
6101;SDS011;3081;50.584;7.032;2022-10-16T14:47:50;9.80;;;1.53;;
6101;SDS011;3081;50.584;7.032;2022-10-16T14:50:20;10.03;;;1.77;;
6101;SDS011;3081;50.584;7.032;2022-10-16T14:52:47;11.93;;;2.53;;
6101;SDS011;3081;50.584;7.032;2022-10-16T14:55:16;8.63;;;1.47;;
6101;SDS011;3081;50.584;7.032;2022-10-16T14:57:43;12.13;;;1.87;;
6101;SDS011;3081;50.584;7.032;2022-10-16T15:00:15;12.63;;;1.77;;
6101;SDS011;3081;50.584;7.032;2022-10-16T15:02:45;17.73;;;1.60;;
6101;SDS011;3081;50.584;7.032;2022-10-16T15:05:14;10.20;;;1.57;;
6101;SDS011;3081;50.584;7.032;2022-10-16T15:07:43;11.30;;;1.67;;
6101;SDS011;3081;50.584;7.032;2022-10-16T15:10:11;12.60;;;2.13;;
6101;SDS011;3081;50.584;7.032;2022-10-16T15:12:40;10.83;;;1.90;;
6101;SDS011;3081;50.584;7.032;2022-10-16T15:17:55;12.23;;;1.63;;
6101;SDS011;3081;50.584;7.032;2022-10-16T15:20:22;12.97;;;2.00;;
6101;SDS011;3081;50.584;7.032;2022-10-16T15:22:50;11.80;;;1.90;;
6101;SDS011;3081;50.584;7.032;2022-10-16T15:25:25;13.27;;;2.40;;
6101;SDS011;3081;50.584;7.032;2022-10-16T15:27:59;15.30;;;2.90;;
6101;SDS011;3081;50.584;7.032;2022-10-16T15:30:28;24.53;;;16.47;;
6101;SDS011;3081;50.584;7.032;2022-10-16T15:32:55;17.90;;;3.33;;
6101;SDS011;3081;50.584;7.032;2022-10-16T15:35:22;25.47;;;7.50;;
6101;SDS011;3081;50.584;7.032;2022-10-16T15:37:49;14.23;;;3.00;;